Details From LIMC - Milano Malpensa
To LIBD - Bari Palese Macchie
Flight Number -
Tags generated
Created
Modified
Stats Distance 445 nm / 824 km
Max Altitude 35,000 ft / 10,668 m
Waypoints 8
Social Downloads 5
Likes 0
Share VATSIM

Download

Looking for another format? Having issues loading an existing format? Contact us
Advertisement - Login to hide

Notes

Basic altitude profile: - Ascent Rate: 2500ft/min - Ascent Speed: 250kts - Cruise Altitude: 30000ft - Cruise Speed: 420kts - Descent Rate: 1500ft/min - Descent Speed: 250kts Options: - Use NATs: yes - Use PACOTS: yes - Use low airways: yes - Use high airways: yes

Route

LIMC PAR UZ904 PREKI UL168 PES M872 AME LIBD

ID Type Via Altitude Latitude Longitude Leg Dist Tot Dist Heading (true) Name
O LIMC APT - 0 ft / 0 m 45.63061˚ 8.72811˚ - 0 nm - Milano Malpensa
PAR NDB - 29,300 ft / 8,931 m 44.82229˚ 10.29327˚ 82 nm 82 nm 126° / 127° PARMA NDB
VALEN FIX UZ904 (AWY-HI) 35,000 ft / 10,668 m 43.93722˚ 11.53306˚ 75 nm 157 nm 135° / 135° -
VERNA FIX UZ904 (AWY-HI) 35,000 ft / 10,668 m 43.74222˚ 11.83167˚ 17 nm 174 nm 132° / 132° -
PREKI FIX UZ904 (AWY-HI) 35,000 ft / 10,668 m 42.87750˚ 13.11917˚ 76 nm 251 nm 132° / 133° -
PES VOR UL168 (AWY-HI) 29,900 ft / 9,114 m 42.43611˚ 14.18444˚ 54 nm 305 nm 119° / 120° PESCARA VOR-DME
AME NDB M872 (AWY-LO) 9,500 ft / 2,896 m 41.50000˚ 15.83778˚ 92 nm 398 nm 127° / 128° AMENDOLA NDB
O LIBD APT - 0 ft / 0 m 41.13787˚ 16.75832˚ 46 nm 444 nm 117° / 118° Bari Palese Macchie

Altitude Profile

Advertisement - Login to hide

Weather


0- 5 10 15 20 25 30 35+ Temperature / ° C

Clouds and Precipitation
Forecast for 2017-12-18 18:00 UTC. Updated an hour ago

Ground ~20,000 ft ~40,000 ft Winds

LIMC

Details ICAO LIMC (MXP)
Name Milano Malpensa
Region Italy
Timezone Europe/Rome (UTC+1.0)
Stats Elevation 767 ft / 234 m (AMSL)
Location 45.630606° 8.728111°
Runways 2
Magnetic Variation 2.378° E

METAR

LIMC 181820Z VRB01KT CAVOK M03/M08 Q1024 NOSIG

Decode

TAF

TAF LIMC 181700Z 1818/1924 VRB05KT CAVOK

Decode

Departure Runways

ID Width Length Bearing (true) Bearing (mag) Surface Threshold Offset Overrun Length
17L 197 ft / 60 m 12,869 ft / 3,923 m 169.62° 167.24° Asphalt 3,094 ft / 943 m 0 ft / 0 m
17R 197 ft / 60 m 12,869 ft / 3,923 m 169.62° 167.24° Asphalt 0 ft / 0 m 0 ft / 0 m
35L 197 ft / 60 m 12,869 ft / 3,923 m 349.62° 347.24° Asphalt 1,329 ft / 405 m 0 ft / 0 m
35R 197 ft / 60 m 12,869 ft / 3,923 m 349.62° 347.24° Asphalt 0 ft / 0 m 0 ft / 0 m

LIBD

Details ICAO LIBD (BRI)
Name Bari Palese Macchie
Region Italy
Timezone Europe/Rome (UTC+1.0)
Stats Elevation 177 ft / 54 m (AMSL)
Location 41.137865° 16.758318°
Runways 1
Magnetic Variation 3.738° E

METAR

LIBD 181820Z 28013KT 9999 VCTS FEW020 SCT025CB 04/00 Q1021

Decode

TAF

TAF LIBD 181700Z 1818/1918 31014KT 9999 SCT030= TAF LIBP 181700Z 1818/1918 32012KT 9999 SCT030 TEMPO 1903/1906 SHRA

Decode

Destination Runways

ID Width Length Bearing (true) Bearing (mag) Surface Threshold Offset Overrun Length
07 148 ft / 45 m 9,262 ft / 2,823 m 69.39° 65.65° Asphalt 1,257 ft / 383 m 0 ft / 0 m
25 148 ft / 45 m 9,262 ft / 2,823 m 249.42° 245.68° Asphalt 0 ft / 0 m 194 ft / 59 m

Approach Navaids

Runway Type Ident Frequency Range Bearing (true) Bearing (mag) Slope Elevation
07 Localiser BAP 111.35 MHz 18 nm / 33 km 69.25° 65.51° - 177 ft / 54 m (AMSL)
07 Glidescope BAP 111.35 MHz 10 nm / 19 km 69.25° 65.51° 3.32° 177 ft / 54 m (AMSL)
07 DME BAP 111.35 MHz 18 nm / 33 km - - - 183 ft / 56 m (AMSL)

Popular Alternatives